KCEC

Del Norte County Airport

Airport
ICAO code
KCEC
Summary
ICAO Region
NAM
ICAO Territory
Location

Cresent City, California,

Coordinates
41° 46' 48" N , 124° 14' 11" W
KCC
Csb
Airport WX
Fog
Metar
Observation
KCEC 171921Z AUTO 17009KT 3SM HZ OVC003 17/14 A2991 RMK AO2 T01670139
Station
Crescent City, Jack McNamara Field Airport
Date/Time
2022-08-17 19:21:00
Wind direction
170°
Wind speed
09 kts
Lowest cloud amount
overcast
Temperature
16.7°C
Dew point
13.9°C
Humidity
83%
Weather condition
haze

Description

Del Norte County Regional Airport, also known as Jack McNamara Field, is a public use airport located 6 km northwest of the central business district of Crescent City, in Del Norte County, California.

Climatology

Crescent City has a Mediterranean climate (Köppen climate classification Csb that is sometimes classified as an oceanic climate due to its high annual rainfall. It is one of the wettest places in California: the annual rainfall is 67 in (1,700 mm). Most of the rain falls in the months from October to March, the wettest month being December with 11 inches (280 mm) of precipitation. The driest month is July with less than 0.5 in (13 mm) of rain.

Airport map

Aerial View

SKYbrary Partners:

Safety knowledge contributed by: